createdAt,value
2023-12-04T00:02:02.176Z,100906.63
2023-12-04T00:04:49.406Z,100911.88
2023-12-04T00:07:36.546Z,100907.63
2023-12-04T00:10:23.711Z,100896.97
2023-12-04T00:13:10.837Z,100883.97
2023-12-04T00:15:58.228Z,100879.66
2023-12-04T00:18:45.652Z,100875.59
2023-12-04T00:21:32.995Z,100886.16
2023-12-04T00:24:20.205Z,100890.34
2023-12-04T00:27:07.350Z,100885.44
2023-12-04T00:29:54.803Z,100887.72
2023-12-04T00:32:42.088Z,100882.53
2023-12-04T00:35:29.268Z,100876.56
2023-12-04T00:38:17.170Z,100879.50
2023-12-04T00:41:04.648Z,100881.78
2023-12-04T00:43:51.767Z,100869.25
2023-12-04T00:46:38.930Z,100875.81
2023-12-04T00:49:26.123Z,100865.16
2023-12-04T00:52:13.454Z,100873.81
2023-12-04T00:55:00.696Z,100870.41
2023-12-04T00:57:48.099Z,100861.47
2023-12-04T01:00:35.292Z,100854.63
2023-12-04T01:03:22.466Z,100847.41
2023-12-04T01:06:21.157Z,100847.41
2023-12-04T01:09:08.265Z,100839.31
2023-12-04T01:11:55.896Z,100834.19
2023-12-04T01:14:43.120Z,100840.56
2023-12-04T01:17:30.285Z,100836.28
2023-12-04T01:20:17.603Z,100838.19
2023-12-04T01:23:04.776Z,100831.84
2023-12-04T01:25:51.904Z,100822.69
2023-12-04T01:28:39.080Z,100828.59
2023-12-04T01:31:26.261Z,100826.88
2023-12-04T01:34:13.427Z,100817.97
2023-12-04T01:37:00.665Z,100818.31
2023-12-04T01:39:47.854Z,100815.97
2023-12-04T01:42:35.091Z,100813.22
2023-12-04T01:45:22.263Z,100809.78
2023-12-04T01:48:10.755Z,100806.34
2023-12-04T01:51:01.360Z,100807.59
2023-12-04T01:53:48.855Z,100811.41
2023-12-04T01:56:37.916Z,100806.34
2023-12-04T01:59:27.235Z,100799.91
2023-12-04T02:02:15.011Z,100813.00
2023-12-04T02:05:03.955Z,100803.44
2023-12-04T02:07:51.573Z,100793.44
2023-12-04T02:10:39.986Z,100790.91
2023-12-04T02:13:27.508Z,100783.84
2023-12-04T02:16:19.926Z,100785.75
2023-12-04T02:19:10.144Z,100774.91
2023-12-04T02:21:57.311Z,100777.00
2023-12-04T02:24:44.568Z,100769.75
2023-12-04T02:27:50.444Z,100761.13
2023-12-04T02:30:39.086Z,100756.41
2023-12-04T02:33:28.652Z,100754.66
2023-12-04T02:36:17.387Z,100750.41
2023-12-04T02:39:05.754Z,100742.34
2023-12-04T02:41:52.923Z,100747.84
2023-12-04T02:44:40.091Z,100743.59
2023-12-04T02:47:27.431Z,100731.88
2023-12-04T02:50:14.618Z,100733.78
2023-12-04T02:53:01.827Z,100726.59
2023-12-04T02:55:48.986Z,100733.13
2023-12-04T02:58:36.224Z,100723.13
2023-12-04T03:01:23.508Z,100727.97
2023-12-04T03:04:10.784Z,100718.88
2023-12-04T03:06:58.098Z,100709.97
2023-12-04T03:09:48.801Z,100705.69
2023-12-04T03:12:37.016Z,100701.03
2023-12-04T03:15:24.331Z,100698.47
2023-12-04T03:18:12.968Z,100700.56
2023-12-04T03:21:00.346Z,100689.56
2023-12-04T03:23:47.422Z,100681.47
2023-12-04T03:26:34.552Z,100682.31
2023-12-04T03:29:21.774Z,100686.13
2023-12-04T03:32:08.940Z,100688.22
2023-12-04T03:34:56.084Z,100682.72
2023-12-04T03:37:43.200Z,100668.28
2023-12-04T03:40:30.286Z,100666.56
2023-12-04T03:43:18.312Z,100664.84
2023-12-04T03:46:05.864Z,100650.44
2023-12-04T03:48:53.166Z,100657.66
2023-12-04T03:51:40.382Z,100654.25
2023-12-04T03:54:27.520Z,100648.75
2023-12-04T03:57:15.117Z,100641.50
2023-12-04T04:00:02.561Z,100634.69
2023-12-04T04:02:58.745Z,100625.38
2023-12-04T04:05:45.876Z,100625.38
2023-12-04T04:08:32.996Z,100625.78
2023-12-04T04:11:20.164Z,100625.78
2023-12-04T04:14:07.462Z,100613.03
2023-12-04T04:16:54.609Z,100607.91
2023-12-04T04:19:42.537Z,100607.91
2023-12-04T04:22:29.727Z,100617.22
2023-12-04T04:25:17.655Z,100608.97
2023-12-04T04:28:04.837Z,100607.25
2023-12-04T04:30:52.050Z,100602.81
2023-12-04T04:33:39.365Z,100590.09
2023-12-04T04:36:26.577Z,100582.88
2023-12-04T04:39:15.154Z,100579.47
2023-12-04T04:42:02.269Z,100575.84
2023-12-04T04:44:49.411Z,100585.16
2023-12-04T04:47:36.729Z,100587.03
2023-12-04T04:50:23.930Z,100576.03
2023-12-04T04:53:11.095Z,100572.63
2023-12-04T04:55:58.330Z,100569.03
2023-12-04T04:58:46.143Z,100570.94
2023-12-04T05:01:40.299Z,100569.22
2023-12-04T05:04:27.613Z,100586.78
2023-12-04T05:07:15.508Z,100580.63
2023-12-04T05:10:04.967Z,100575.13
2023-12-04T05:12:53.676Z,100583.38
2023-12-04T05:15:41.043Z,100574.44
2023-12-04T05:18:28.206Z,100566.59
2023-12-04T05:21:15.454Z,100562.78
2023-12-04T05:24:02.638Z,100559.34
2023-12-04T05:26:49.765Z,100568.28
2023-12-04T05:29:36.888Z,100564.84
2023-12-04T05:32:24.012Z,100552.16
2023-12-04T05:35:11.190Z,100539.44
2023-12-04T05:37:58.314Z,100545.94
2023-12-04T05:40:45.756Z,100541.50
2023-12-04T05:43:32.884Z,100537.91
2023-12-04T05:46:20.160Z,100536.00
2023-12-04T05:49:07.391Z,100526.34
2023-12-04T05:51:54.588Z,100529.53
2023-12-04T05:54:41.742Z,100523.06
2023-12-04T05:57:28.947Z,100522.78
2023-12-04T06:00:16.435Z,100531.38
2023-12-04T06:03:03.731Z,100526.97
2023-12-04T06:05:52.250Z,100528.50
2023-12-04T06:08:40.506Z,100528.69
2023-12-04T06:11:27.713Z,100532.63
2023-12-04T06:14:14.942Z,100525.94
2023-12-04T06:17:02.686Z,100522.16
2023-12-04T06:19:49.925Z,100516.69
2023-12-04T06:22:37.377Z,100505.25
2023-12-04T06:25:25.295Z,100512.25
2023-12-04T06:28:13.784Z,100510.34
2023-12-04T06:31:01.513Z,100504.78
2023-12-04T06:33:49.096Z,100497.53
2023-12-04T06:36:42.402Z,100496.47
2023-12-04T06:39:34.695Z,100483.03
2023-12-04T06:42:22.332Z,100471.72
2023-12-04T06:45:10.940Z,100457.41
2023-12-04T06:47:59.009Z,100459.94
2023-12-04T06:50:46.193Z,100454.34
2023-12-04T06:53:33.330Z,100447.50
2023-12-04T06:56:21.112Z,100442.16
2023-12-04T06:59:08.531Z,100440.44
2023-12-04T07:01:55.740Z,100437.00
2023-12-04T07:04:43.073Z,100425.25
2023-12-04T07:07:30.266Z,100437.13
2023-12-04T07:10:17.544Z,100426.47
2023-12-04T07:13:05.574Z,100414.94
2023-12-04T07:15:52.736Z,100406.41
2023-12-04T07:18:40.080Z,100402.94
2023-12-04T07:21:27.387Z,100411.88
2023-12-04T07:24:14.585Z,100433.38
2023-12-04T07:27:01.746Z,100442.94
2023-12-04T07:29:48.875Z,100444.19
2023-12-04T07:32:36.579Z,100440.97
2023-12-04T07:35:23.982Z,100436.88
2023-12-04T07:38:11.197Z,100439.00
2023-12-04T07:40:59.689Z,100438.91
2023-12-04T07:43:47.122Z,100441.50
2023-12-04T07:46:34.467Z,100434.66
2023-12-04T07:49:21.689Z,100430.34
2023-12-04T07:52:09.738Z,100433.75
2023-12-04T07:54:57.392Z,100440.53
2023-12-04T07:57:44.713Z,100440.31
2023-12-04T08:00:31.892Z,100438.16
2023-12-04T08:03:19.517Z,100434.09
2023-12-04T08:06:07.202Z,100438.09
2023-12-04T08:08:55.616Z,100427.63
2023-12-04T08:11:42.918Z,100434.63
2023-12-04T08:14:30.209Z,100433.16
2023-12-04T08:17:17.361Z,100420.34
2023-12-04T08:20:05.534Z,100416.53
2023-12-04T08:22:52.866Z,100400.31
2023-12-04T08:25:40.655Z,100405.44
2023-12-04T08:28:28.028Z,100409.03
2023-12-04T08:31:15.608Z,100404.97
2023-12-04T08:34:02.763Z,100406.22
2023-12-04T08:36:50.089Z,100406.22
2023-12-04T08:39:37.370Z,100404.06
2023-12-04T08:42:24.864Z,100402.97
2023-12-04T08:45:12.511Z,100397.44
2023-12-04T08:47:59.717Z,100390.78
2023-12-04T08:50:47.008Z,100376.31
2023-12-04T08:53:34.128Z,100378.47
2023-12-04T08:56:26.052Z,100369.09
2023-12-04T08:59:18.366Z,100371.59
2023-12-04T09:02:05.919Z,100368.81
2023-12-04T09:04:53.450Z,100365.00
2023-12-04T09:08:28.656Z,100364.75
2023-12-04T09:11:03.164Z,100357.06
2023-12-04T09:13:56.022Z,100355.72
2023-12-04T09:16:44.040Z,100348.50
2023-12-04T09:19:31.431Z,100348.50
2023-12-04T09:22:21.159Z,100346.78
2023-12-04T09:25:11.993Z,100339.31
2023-12-04T09:27:59.212Z,100349.34
2023-12-04T09:30:46.553Z,100351.91
2023-12-04T09:33:33.757Z,100350.56
2023-12-04T09:36:21.117Z,100341.19
2023-12-04T09:39:08.385Z,100348.41
2023-12-04T09:41:57.027Z,100346.25
2023-12-04T09:44:45.143Z,100347.94
2023-12-04T09:47:35.388Z,100349.16
2023-12-04T09:50:23.856Z,100338.16
2023-12-04T09:53:14.889Z,100340.59
2023-12-04T09:56:05.333Z,100336.78
2023-12-04T09:59:00.727Z,100332.59
2023-12-04T10:01:48.858Z,100331.63
2023-12-04T10:04:36.973Z,100332.06
2023-12-04T10:07:24.129Z,100323.13
2023-12-04T10:10:12.011Z,100325.91
2023-12-04T10:12:59.637Z,100323.13
2023-12-04T10:15:52.669Z,100320.50
2023-12-04T10:18:39.974Z,100324.81
2023-12-04T10:21:34.450Z,100317.28
2023-12-04T10:24:39.792Z,100307.81
2023-12-04T10:27:28.119Z,100311.09
2023-12-04T10:30:28.481Z,100296.94
2023-12-04T10:33:16.413Z,100292.75
2023-12-04T10:36:05.503Z,100292.75
2023-12-04T10:39:02.012Z,100286.06
2023-12-04T10:42:04.570Z,100281.97
2023-12-04T10:44:52.111Z,100271.22
2023-12-04T10:47:40.274Z,100263.91
2023-12-04T10:50:29.779Z,100260.31
2023-12-04T10:53:18.591Z,100261.13
2023-12-04T10:56:07.205Z,100247.50
2023-12-04T10:58:57.975Z,100253.03
2023-12-04T11:01:48.642Z,100254.56
2023-12-04T11:04:40.082Z,100239.59
2023-12-04T11:07:28.957Z,100232.97
2023-12-04T11:10:18.194Z,100228.47
2023-12-04T11:13:16.870Z,100222.69
2023-12-04T11:16:19.730Z,100213.31
2023-12-04T11:19:23.076Z,100212.44
2023-12-04T11:22:12.929Z,100207.91
2023-12-04T11:25:02.484Z,100196.44
2023-12-04T11:27:50.772Z,100197.53
2023-12-04T11:30:39.018Z,100193.03
2023-12-04T11:33:26.388Z,100181.94
2023-12-04T11:36:16.019Z,100186.88
2023-12-04T11:39:04.379Z,100189.44
2023-12-04T11:41:52.061Z,100185.81
2023-12-04T11:44:42.847Z,100186.66
2023-12-04T11:47:30.237Z,100187.13
2023-12-04T11:50:20.315Z,100177.34
2023-12-04T11:53:07.538Z,100176.53
2023-12-04T11:55:59.932Z,100173.38
2023-12-04T11:58:48.434Z,100167.69
2023-12-04T12:01:38.379Z,100165.38
2023-12-04T12:04:30.214Z,100161.38
2023-12-04T12:07:19.223Z,100152.44
2023-12-04T12:10:07.008Z,100146.91
2023-12-04T12:12:54.347Z,100141.34
2023-12-04T12:15:41.634Z,100123.00
2023-12-04T12:18:29.676Z,100124.56
2023-12-04T12:21:17.674Z,100125.03
2023-12-04T12:24:07.984Z,100113.81
2023-12-04T12:26:56.548Z,100109.19
2023-12-04T12:29:44.336Z,100100.72
2023-12-04T12:32:37.980Z,100087.50
2023-12-04T12:35:26.436Z,100077.09
2023-12-04T12:38:13.646Z,100071.78
2023-12-04T12:41:00.940Z,100067.09
2023-12-04T12:43:52.123Z,100060.69
2023-12-04T12:46:42.118Z,100055.16
2023-12-04T12:49:36.406Z,100051.53
2023-12-04T12:52:28.173Z,100046.22
2023-12-04T12:55:28.233Z,100041.47
2023-12-04T12:58:16.636Z,100045.00
2023-12-04T13:01:04.292Z,100049.72
2023-12-04T13:03:51.662Z,100056.56
2023-12-04T13:06:39.461Z,100053.19
2023-12-04T13:09:26.681Z,100047.72
2023-12-04T13:12:15.088Z,100043.72
2023-12-04T13:15:03.151Z,100038.91
2023-12-04T13:17:50.373Z,100033.38
2023-12-04T13:20:37.552Z,100029.72
2023-12-04T13:23:25.427Z,100022.28
2023-12-04T13:26:12.583Z,100020.13
2023-12-04T13:29:00.290Z,100017.72
2023-12-04T13:31:51.658Z,100017.00
2023-12-04T13:34:39.130Z,100006.78
2023-12-04T13:37:28.338Z,99999.91
2023-12-04T13:40:17.732Z,100005.47
2023-12-04T13:43:23.677Z,99994.00
2023-12-04T13:46:11.469Z,99982.53
2023-12-04T13:49:00.305Z,99982.41
2023-12-04T13:51:50.485Z,99984.78
2023-12-04T13:54:48.972Z,99976.72
2023-12-04T13:57:45.335Z,99980.13
2023-12-04T14:00:32.954Z,99969.38
2023-12-04T14:03:20.817Z,99966.97
2023-12-04T14:06:08.821Z,99954.38
2023-12-04T14:08:59.757Z,99963.06
2023-12-04T14:11:47.225Z,99958.94
2023-12-04T14:14:38.463Z,99939.94
2023-12-04T14:17:25.863Z,99929.44
2023-12-04T14:20:16.398Z,99931.97
2023-12-04T14:23:03.655Z,99930.91
2023-12-04T14:25:50.866Z,99919.19
2023-12-04T14:28:42.831Z,99919.69
2023-12-04T14:31:31.307Z,99918.47
2023-12-04T14:34:18.777Z,99930.03
2023-12-04T14:37:06.072Z,99918.34
2023-12-04T14:39:53.532Z,99919.88
2023-12-04T14:42:41.808Z,99913.72
2023-12-04T14:45:29.406Z,99909.75
2023-12-04T14:48:16.637Z,99903.63
2023-12-04T14:51:05.088Z,99907.34
2023-12-04T14:54:12.027Z,99906.47
2023-12-04T14:57:17.804Z,99903.47
2023-12-04T15:00:15.051Z,99904.69
2023-12-04T15:03:22.252Z,99900.84
2023-12-04T15:06:12.712Z,99896.50
2023-12-04T15:09:18.677Z,99899.88
2023-12-04T15:12:24.630Z,99896.03
2023-12-04T15:15:11.802Z,99901.59
2023-12-04T15:18:19.120Z,99892.16
2023-12-04T15:21:08.117Z,99895.56
2023-12-04T15:23:55.412Z,99890.28
2023-12-04T15:26:42.520Z,99894.47
2023-12-04T15:29:31.509Z,99892.53
2023-12-04T15:32:18.770Z,99888.94
2023-12-04T15:35:10.798Z,99883.84
2023-12-04T15:38:01.142Z,99873.88
2023-12-04T15:40:48.836Z,99873.50
2023-12-04T15:43:36.311Z,99864.22
2023-12-04T15:46:24.050Z,99866.41
2023-12-04T15:49:12.224Z,99863.03
2023-12-04T15:51:59.611Z,99862.53
2023-12-04T15:54:48.025Z,99857.59
2023-12-04T15:57:36.020Z,99853.97
2023-12-04T16:00:27.175Z,99857.59
2023-12-04T16:03:14.365Z,99850.38
2023-12-04T16:06:01.861Z,99855.31
2023-12-04T16:08:49.111Z,99837.72
2023-12-04T16:11:36.486Z,99837.13
2023-12-04T16:14:23.672Z,99836.25
2023-12-04T16:17:10.862Z,99835.41
2023-12-04T16:20:01.005Z,99834.59
2023-12-04T16:22:49.235Z,99839.25
2023-12-04T16:25:36.358Z,99832.03
2023-12-04T16:28:24.084Z,99832.50
2023-12-04T16:31:11.240Z,99822.75
2023-12-04T16:33:58.488Z,99814.91
2023-12-04T16:36:46.588Z,99816.47
2023-12-04T16:39:33.821Z,99815.25
2023-12-04T16:42:22.026Z,99810.63
2023-12-04T16:45:09.772Z,99806.06
2023-12-04T16:47:57.123Z,99804.25
2023-12-04T16:50:44.487Z,99806.25
2023-12-04T16:53:32.983Z,99807.19
2023-12-04T16:56:20.281Z,99796.63
2023-12-04T16:59:07.945Z,99798.13
2023-12-04T17:01:55.146Z,99786.47
2023-12-04T17:04:42.493Z,99772.47
2023-12-04T17:07:29.805Z,99783.16
2023-12-04T17:10:17.197Z,99787.25
2023-12-04T17:13:05.327Z,99782.91
2023-12-04T17:15:53.150Z,99784.19
2023-12-04T17:18:41.150Z,99778.28
2023-12-04T17:21:28.381Z,99774.28
2023-12-04T17:24:16.066Z,99775.59
2023-12-04T17:27:03.397Z,99773.06
2023-12-04T17:29:50.589Z,99773.53
2023-12-04T17:32:39.470Z,99764.00
2023-12-04T17:35:27.236Z,99762.78
2023-12-04T17:38:14.421Z,99758.56
2023-12-04T17:41:01.674Z,99753.88
2023-12-04T17:43:49.259Z,99755.34
2023-12-04T17:46:36.388Z,99752.09
2023-12-04T17:49:23.526Z,99750.56
2023-12-04T17:52:11.660Z,99757.78
2023-12-04T17:54:58.839Z,99740.09
2023-12-04T17:57:46.028Z,99746.97
2023-12-04T18:00:33.283Z,99750.56
2023-12-04T18:03:21.043Z,99742.25
2023-12-04T18:06:08.973Z,99729.03
2023-12-04T18:08:56.691Z,99726.84
2023-12-04T18:11:43.845Z,99725.66
2023-12-04T18:14:31.081Z,99721.09
2023-12-04T18:17:18.375Z,99712.09
2023-12-04T18:20:07.537Z,99715.47
2023-12-04T18:22:56.865Z,99706.06
2023-12-04T18:25:46.368Z,99696.72
2023-12-04T18:28:34.611Z,99691.19
2023-12-04T18:31:22.340Z,99695.38
2023-12-04T18:34:10.077Z,99697.91
2023-12-04T18:37:08.077Z,99684.69
2023-12-04T18:39:59.956Z,99682.50
2023-12-04T18:42:47.812Z,99683.59
2023-12-04T18:45:35.421Z,99678.69
2023-12-04T18:48:28.421Z,99678.22
2023-12-04T18:51:16.451Z,99676.50
2023-12-04T18:54:03.967Z,99668.81
2023-12-04T18:56:51.098Z,99670.75
2023-12-04T18:59:38.910Z,99669.91
2023-12-04T19:02:26.550Z,99662.53
2023-12-04T19:05:14.075Z,99663.03
2023-12-04T19:08:02.954Z,99656.28
2023-12-04T19:10:50.151Z,99660.13
2023-12-04T19:13:37.371Z,99652.44
2023-12-04T19:16:24.603Z,99653.63
2023-12-04T19:19:12.130Z,99652.69
2023-12-04T19:21:59.285Z,99652.81
2023-12-04T19:24:46.653Z,99639.56
2023-12-04T19:27:33.929Z,99642.34
2023-12-04T19:30:21.150Z,99641.03
2023-12-04T19:33:14.952Z,99646.81
2023-12-04T19:36:07.370Z,99647.88
2023-12-04T19:38:54.582Z,99633.44
2023-12-04T19:41:42.479Z,99629.22
2023-12-04T19:44:29.588Z,99630.06
2023-12-04T19:47:16.912Z,99623.09
2023-12-04T19:50:04.650Z,99623.34
2023-12-04T19:52:51.887Z,99624.16
2023-12-04T19:55:39.065Z,99623.34
2023-12-04T19:58:26.219Z,99625.50
2023-12-04T20:01:27.620Z,99619.34
2023-12-04T20:04:14.913Z,99614.44
2023-12-04T20:07:02.409Z,99617.19
2023-12-04T20:09:49.584Z,99614.44
2023-12-04T20:12:36.973Z,99601.66
2023-12-04T20:15:24.529Z,99608.06
2023-12-04T20:18:12.005Z,99600.00
2023-12-04T20:20:59.201Z,99600.59
2023-12-04T20:23:46.376Z,99597.81
2023-12-04T20:26:33.525Z,99594.47
2023-12-04T20:29:20.698Z,99585.56
2023-12-04T20:32:10.319Z,99588.94
2023-12-04T20:34:59.309Z,99589.53
2023-12-04T20:37:46.718Z,99583.38
2023-12-04T20:40:34.237Z,99583.16
2023-12-04T20:43:21.501Z,99580.38
2023-12-04T20:46:08.762Z,99580.13
2023-12-04T20:48:56.128Z,99576.06
2023-12-04T20:51:43.320Z,99577.72
2023-12-04T20:54:30.492Z,99579.66
2023-12-04T20:57:18.018Z,99573.53
2023-12-04T21:00:07.890Z,99579.06
2023-12-04T21:02:55.356Z,99564.97
2023-12-04T21:05:42.612Z,99562.22
2023-12-04T21:08:29.967Z,99562.44
2023-12-04T21:11:17.129Z,99563.88
2023-12-04T21:14:05.022Z,99568.34
2023-12-04T21:16:58.543Z,99560.28
2023-12-04T21:19:48.413Z,99563.66
2023-12-04T21:22:35.657Z,99558.13
2023-12-04T21:25:23.319Z,99558.63
2023-12-04T21:28:10.578Z,99561.75
2023-12-04T21:30:57.940Z,99558.97
2023-12-04T21:33:45.231Z,99552.56
2023-12-04T21:36:32.548Z,99558.13
2023-12-04T21:39:20.177Z,99558.13
2023-12-04T21:42:09.054Z,99558.13
2023-12-04T21:44:56.372Z,99558.13
2023-12-04T21:47:43.546Z,99538.97
2023-12-04T21:50:31.680Z,99553.91
2023-12-04T21:53:18.786Z,99540.31
2023-12-04T21:56:06.711Z,99542.00
2023-12-04T21:58:54.993Z,99529.25
2023-12-04T22:01:42.180Z,99536.13
2023-12-04T22:04:29.434Z,99529.13
2023-12-04T22:07:16.760Z,99526.50
2023-12-04T22:10:06.278Z,99519.50
2023-12-04T22:12:53.493Z,99516.72
2023-12-04T22:15:40.710Z,99522.75
2023-12-04T22:18:28.463Z,99521.06
2023-12-04T22:21:20.092Z,99506.63
2023-12-04T22:24:07.505Z,99502.41
2023-12-04T22:26:55.177Z,99505.91
2023-12-04T22:29:42.361Z,99495.31
2023-12-04T22:32:29.568Z,99502.88
2023-12-04T22:35:16.692Z,99506.38
2023-12-04T22:38:03.939Z,99504.91
2023-12-04T22:40:51.419Z,99510.56
2023-12-04T22:43:40.212Z,99505.97
2023-12-04T22:46:28.164Z,99511.13
2023-12-04T22:49:16.216Z,99494.19
2023-12-04T22:52:03.758Z,99501.50
2023-12-04T22:54:51.104Z,99499.22
2023-12-04T22:57:38.269Z,99491.88
2023-12-04T23:00:26.630Z,99498.72
2023-12-04T23:03:14.303Z,99495.81
2023-12-04T23:06:01.570Z,99496.53
2023-12-04T23:08:48.725Z,99493.66
2023-12-04T23:11:36.194Z,99490.09
2023-12-04T23:14:24.033Z,99493.31
2023-12-04T23:17:11.169Z,99490.41
2023-12-04T23:19:58.668Z,99485.63
2023-12-04T23:22:45.846Z,99496.28
2023-12-04T23:25:33.008Z,99482.34
2023-12-04T23:28:20.130Z,99486.66
2023-12-04T23:31:07.619Z,99493.72
2023-12-04T23:33:55.053Z,99489.94
2023-12-04T23:36:43.032Z,99486.84
2023-12-04T23:39:30.878Z,99489.44
2023-12-04T23:42:18.056Z,99484.59
2023-12-04T23:45:07.171Z,99484.72
2023-12-04T23:47:54.415Z,99482.41
2023-12-04T23:50:41.681Z,99482.88
2023-12-04T23:53:28.829Z,99478.88
2023-12-04T23:56:16.566Z,99482.06
2023-12-04T23:59:03.739Z,99474.88
